sensor_id;sensor_type;location;lat;lon;timestamp;pressure;altitude;pressure_sealevel;temperature;humidity
19789;BME280;10054;59.332;18.244;2023-04-28T00:01:15;100568.89;;;3.34;100.00
19789;BME280;10054;59.332;18.244;2023-04-28T00:03:44;100563.17;;;3.36;100.00
19789;BME280;10054;59.332;18.244;2023-04-28T00:06:13;100570.84;;;3.41;100.00
19789;BME280;10054;59.332;18.244;2023-04-28T00:08:42;100574.25;;;3.43;100.00
19789;BME280;10054;59.332;18.244;2023-04-28T00:11:11;100568.23;;;3.41;100.00
19789;BME280;10054;59.332;18.244;2023-04-28T00:13:40;100572.55;;;3.42;100.00
19789;BME280;10054;59.332;18.244;2023-04-28T00:16:09;100577.70;;;3.43;100.00
19789;BME280;10054;59.332;18.244;2023-04-28T00:18:38;100580.42;;;3.40;100.00
19789;BME280;10054;59.332;18.244;2023-04-28T00:21:07;100577.91;;;3.37;100.00
19789;BME280;10054;59.332;18.244;2023-04-28T00:23:36;100580.12;;;3.36;100.00
19789;BME280;10054;59.332;18.244;2023-04-28T00:26:05;100585.48;;;3.32;100.00
19789;BME280;10054;59.332;18.244;2023-04-28T00:28:34;100587.14;;;3.21;100.00
19789;BME280;10054;59.332;18.244;2023-04-28T00:31:10;100591.66;;;3.16;100.00
19789;BME280;10054;59.332;18.244;2023-04-28T00:33:40;100584.34;;;3.14;100.00
19789;BME280;10054;59.332;18.244;2023-04-28T00:36:09;100590.59;;;3.08;100.00
19789;BME280;10054;59.332;18.244;2023-04-28T00:38:38;100589.89;;;3.03;100.00
19789;BME280;10054;59.332;18.244;2023-04-28T00:41:09;100592.09;;;3.02;100.00
19789;BME280;10054;59.332;18.244;2023-04-28T00:43:48;100594.80;;;2.99;100.00
19789;BME280;10054;59.332;18.244;2023-04-28T00:46:29;100593.55;;;2.97;100.00
19789;BME280;10054;59.332;18.244;2023-04-28T00:48:49;100601.12;;;3.05;100.00
19789;BME280;10054;59.332;18.244;2023-04-28T00:51:18;100595.91;;;3.05;100.00
19789;BME280;10054;59.332;18.244;2023-04-28T00:53:48;100601.67;;;3.02;100.00
19789;BME280;10054;59.332;18.244;2023-04-28T00:56:18;100602.17;;;3.00;100.00
19789;BME280;10054;59.332;18.244;2023-04-28T00:58:47;100605.80;;;2.95;100.00
19789;BME280;10054;59.332;18.244;2023-04-28T01:01:17;100607.80;;;2.87;100.00
19789;BME280;10054;59.332;18.244;2023-04-28T01:03:47;100602.72;;;2.83;100.00
19789;BME280;10054;59.332;18.244;2023-04-28T01:06:16;100598.06;;;2.79;100.00
19789;BME280;10054;59.332;18.244;2023-04-28T01:08:47;100598.60;;;2.76;100.00
19789;BME280;10054;59.332;18.244;2023-04-28T01:11:18;100605.16;;;2.74;100.00
19789;BME280;10054;59.332;18.244;2023-04-28T01:14:04;100602.70;;;2.70;100.00
19789;BME280;10054;59.332;18.244;2023-04-28T01:16:35;100604.95;;;2.67;100.00
19789;BME280;10054;59.332;18.244;2023-04-28T01:19:07;100604.23;;;2.62;100.00
19789;BME280;10054;59.332;18.244;2023-04-28T01:21:37;100605.17;;;2.59;100.00
19789;BME280;10054;59.332;18.244;2023-04-28T01:24:14;100606.08;;;2.58;100.00
19789;BME280;10054;59.332;18.244;2023-04-28T01:26:43;100608.32;;;2.56;100.00
19789;BME280;10054;59.332;18.244;2023-04-28T01:29:13;100604.55;;;2.51;100.00
19789;BME280;10054;59.332;18.244;2023-04-28T01:31:42;100612.36;;;2.51;100.00
19789;BME280;10054;59.332;18.244;2023-04-28T01:34:11;100614.11;;;2.51;100.00
19789;BME280;10054;59.332;18.244;2023-04-28T01:36:40;100608.14;;;2.47;100.00
19789;BME280;10054;59.332;18.244;2023-04-28T01:39:10;100605.18;;;2.45;100.00
19789;BME280;10054;59.332;18.244;2023-04-28T01:41:40;100606.08;;;2.44;100.00
19789;BME280;10054;59.332;18.244;2023-04-28T01:44:09;100609.22;;;2.40;100.00
19789;BME280;10054;59.332;18.244;2023-04-28T01:46:39;100608.91;;;2.36;100.00
19789;BME280;10054;59.332;18.244;2023-04-28T01:49:09;100608.18;;;2.31;100.00
19789;BME280;10054;59.332;18.244;2023-04-28T01:51:37;100615.18;;;2.29;100.00
19789;BME280;10054;59.332;18.244;2023-04-28T01:54:08;100614.78;;;2.28;100.00
19789;BME280;10054;59.332;18.244;2023-04-28T01:56:36;100621.37;;;2.25;100.00
19789;BME280;10054;59.332;18.244;2023-04-28T01:59:06;100623.23;;;2.21;100.00
19789;BME280;10054;59.332;18.244;2023-04-28T02:01:35;100619.78;;;2.21;100.00
19789;BME280;10054;59.332;18.244;2023-04-28T02:04:04;100615.97;;;2.18;100.00
19789;BME280;10054;59.332;18.244;2023-04-28T02:06:33;100619.06;;;2.16;100.00
19789;BME280;10054;59.332;18.244;2023-04-28T02:09:03;100616.05;;;2.15;100.00
19789;BME280;10054;59.332;18.244;2023-04-28T02:11:33;100617.35;;;2.15;100.00
19789;BME280;10054;59.332;18.244;2023-04-28T02:14:02;100614.83;;;2.12;100.00
19789;BME280;10054;59.332;18.244;2023-04-28T02:16:32;100612.31;;;2.09;100.00
19789;BME280;10054;59.332;18.244;2023-04-28T02:19:01;100613.63;;;2.09;100.00
19789;BME280;10054;59.332;18.244;2023-04-28T02:21:30;100612.72;;;2.10;100.00
19789;BME280;10054;59.332;18.244;2023-04-28T02:23:59;100612.77;;;2.08;100.00
19789;BME280;10054;59.332;18.244;2023-04-28T02:26:30;100613.13;;;2.11;100.00
19789;BME280;10054;59.332;18.244;2023-04-28T02:28:59;100623.05;;;2.13;100.00
19789;BME280;10054;59.332;18.244;2023-04-28T02:31:31;100622.20;;;2.12;100.00
19789;BME280;10054;59.332;18.244;2023-04-28T02:34:00;100623.05;;;2.13;100.00
19789;BME280;10054;59.332;18.244;2023-04-28T02:36:29;100628.34;;;2.10;100.00
19789;BME280;10054;59.332;18.244;2023-04-28T02:38:58;100628.38;;;2.08;100.00
19789;BME280;10054;59.332;18.244;2023-04-28T02:41:27;100632.77;;;2.06;100.00
19789;BME280;10054;59.332;18.244;2023-04-28T02:43:57;100627.69;;;2.02;100.00
19789;BME280;10054;59.332;18.244;2023-04-28T02:46:26;100627.33;;;1.99;100.00
19789;BME280;10054;59.332;18.244;2023-04-28T02:48:55;100629.48;;;2.00;100.00
19789;BME280;10054;59.332;18.244;2023-04-28T02:51:23;100627.37;;;1.97;100.00
19789;BME280;10054;59.332;18.244;2023-04-28T02:53:53;100632.20;;;1.95;100.00
19789;BME280;10054;59.332;18.244;2023-04-28T02:56:23;100630.02;;;1.96;100.00
19789;BME280;10054;59.332;18.244;2023-04-28T02:58:53;100625.66;;;1.96;100.00
19789;BME280;10054;59.332;18.244;2023-04-28T03:01:22;100635.98;;;2.00;100.00
19789;BME280;10054;59.332;18.244;2023-04-28T03:03:51;100643.30;;;2.02;100.00
19789;BME280;10054;59.332;18.244;2023-04-28T03:06:20;100635.41;;;2.05;100.00
19789;BME280;10054;59.332;18.244;2023-04-28T03:08:49;100634.07;;;2.06;100.00
19789;BME280;10054;59.332;18.244;2023-04-28T03:11:19;100637.08;;;2.07;100.00
19789;BME280;10054;59.332;18.244;2023-04-28T03:13:48;100639.96;;;2.13;100.00
19789;BME280;10054;59.332;18.244;2023-04-28T03:16:16;100636.70;;;2.21;100.00
19789;BME280;10054;59.332;18.244;2023-04-28T03:18:45;100637.80;;;2.27;100.00
19789;BME280;10054;59.332;18.244;2023-04-28T03:21:15;100646.33;;;2.32;100.00
19789;BME280;10054;59.332;18.244;2023-04-28T03:23:44;100649.21;;;2.38;100.00
19789;BME280;10054;59.332;18.244;2023-04-28T03:26:13;100648.19;;;2.43;100.00
19789;BME280;10054;59.332;18.244;2023-04-28T03:28:43;100648.05;;;2.48;100.00
19789;BME280;10054;59.332;18.244;2023-04-28T03:31:11;100642.80;;;2.49;100.00
19789;BME280;10054;59.332;18.244;2023-04-28T03:33:41;100646.53;;;2.55;100.00
19789;BME280;10054;59.332;18.244;2023-04-28T03:36:11;100644.19;;;2.61;100.00
19789;BME280;10054;59.332;18.244;2023-04-28T03:38:40;100648.41;;;2.65;100.00
19789;BME280;10054;59.332;18.244;2023-04-28T03:41:09;100654.79;;;2.70;100.00
19789;BME280;10054;59.332;18.244;2023-04-28T03:43:52;100651.55;;;2.76;100.00
19789;BME280;10054;59.332;18.244;2023-04-28T03:46:24;100650.97;;;2.81;100.00
19789;BME280;10054;59.332;18.244;2023-04-28T03:48:52;100652.58;;;2.85;100.00
19789;BME280;10054;59.332;18.244;2023-04-28T03:51:21;100651.95;;;2.92;100.00
19789;BME280;10054;59.332;18.244;2023-04-28T03:53:50;100656.03;;;2.99;100.00
19789;BME280;10054;59.332;18.244;2023-04-28T03:56:19;100660.20;;;3.05;100.00
19789;BME280;10054;59.332;18.244;2023-04-28T03:58:48;100651.39;;;3.09;100.00
19789;BME280;10054;59.332;18.244;2023-04-28T04:01:17;100660.73;;;3.16;100.00
19789;BME280;10054;59.332;18.244;2023-04-28T04:03:47;100664.09;;;3.19;100.00
19789;BME280;10054;59.332;18.244;2023-04-28T04:06:18;100660.58;;;3.20;100.00
19789;BME280;10054;59.332;18.244;2023-04-28T04:08:47;100666.55;;;3.24;100.00
19789;BME280;10054;59.332;18.244;2023-04-28T04:11:16;100663.40;;;3.27;100.00
19789;BME280;10054;59.332;18.244;2023-04-28T04:13:45;100667.71;;;3.28;100.00
19789;BME280;10054;59.332;18.244;2023-04-28T04:16:15;100672.02;;;3.29;100.00
19789;BME280;10054;59.332;18.244;2023-04-28T04:18:45;100668.47;;;3.32;100.00
19789;BME280;10054;59.332;18.244;2023-04-28T04:21:19;100670.13;;;3.35;100.00
19789;BME280;10054;59.332;18.244;2023-04-28T04:23:48;100673.59;;;3.35;100.00
19789;BME280;10054;59.332;18.244;2023-04-28T04:26:16;100675.24;;;3.38;100.00
19789;BME280;10054;59.332;18.244;2023-04-28T04:28:46;100673.39;;;3.41;100.00
19789;BME280;10054;59.332;18.244;2023-04-28T04:31:15;100681.56;;;3.44;100.00
19789;BME280;10054;59.332;18.244;2023-04-28T04:33:46;100681.52;;;3.45;100.00
19789;BME280;10054;59.332;18.244;2023-04-28T04:36:16;100683.67;;;3.46;100.00
19789;BME280;10054;59.332;18.244;2023-04-28T04:38:45;100673.09;;;3.50;100.00
19789;BME280;10054;59.332;18.244;2023-04-28T04:41:15;100682.07;;;3.55;100.00
19789;BME280;10054;59.332;18.244;2023-04-28T04:43:44;100688.55;;;3.56;100.00
19789;BME280;10054;59.332;18.244;2023-04-28T04:46:13;100685.38;;;3.60;100.00
19789;BME280;10054;59.332;18.244;2023-04-28T04:48:42;100686.54;;;3.65;100.00
19789;BME280;10054;59.332;18.244;2023-04-28T04:51:12;100686.48;;;3.66;100.00
19789;BME280;10054;59.332;18.244;2023-04-28T04:53:42;100686.39;;;3.69;100.00
19789;BME280;10054;59.332;18.244;2023-04-28T04:56:12;100686.60;;;3.75;100.00
19789;BME280;10054;59.332;18.244;2023-04-28T04:58:43;100688.31;;;3.76;100.00
19789;BME280;10054;59.332;18.244;2023-04-28T05:01:19;100694.78;;;3.77;100.00
19789;BME280;10054;59.332;18.244;2023-04-28T05:03:48;100691.67;;;3.79;100.00
19789;BME280;10054;59.332;18.244;2023-04-28T05:06:17;100692.42;;;3.83;100.00
19789;BME280;10054;59.332;18.244;2023-04-28T05:08:47;100691.06;;;3.84;100.00
19789;BME280;10054;59.332;18.244;2023-04-28T05:11:16;100694.42;;;3.88;100.00
19789;BME280;10054;59.332;18.244;2023-04-28T05:13:46;100696.88;;;3.92;100.00
19789;BME280;10054;59.332;18.244;2023-04-28T05:16:15;100695.81;;;3.98;100.00
19789;BME280;10054;59.332;18.244;2023-04-28T05:18:48;100692.64;;;4.02;100.00
19789;BME280;10054;59.332;18.244;2023-04-28T05:21:18;100698.00;;;4.10;100.00
19789;BME280;10054;59.332;18.244;2023-04-28T05:23:48;100696.89;;;4.17;100.00
19789;BME280;10054;59.332;18.244;2023-04-28T05:26:17;100696.27;;;4.22;100.00
19789;BME280;10054;59.332;18.244;2023-04-28T05:28:46;100697.02;;;4.26;100.00
19789;BME280;10054;59.332;18.244;2023-04-28T05:31:16;100708.05;;;4.34;100.00
19789;BME280;10054;59.332;18.244;2023-04-28T05:33:44;100702.55;;;4.42;100.00
19789;BME280;10054;59.332;18.244;2023-04-28T05:36:14;100697.67;;;4.44;100.00
19789;BME280;10054;59.332;18.244;2023-04-28T05:38:45;100710.73;;;4.44;100.00
19789;BME280;10054;59.332;18.244;2023-04-28T05:41:13;100707.02;;;4.50;100.00
19789;BME280;10054;59.332;18.244;2023-04-28T05:43:43;100708.66;;;4.52;100.00
19789;BME280;10054;59.332;18.244;2023-04-28T05:46:12;100710.42;;;4.52;100.00
19789;BME280;10054;59.332;18.244;2023-04-28T05:48:41;100715.54;;;4.55;100.00
19789;BME280;10054;59.332;18.244;2023-04-28T05:51:11;100714.47;;;4.60;100.00
19789;BME280;10054;59.332;18.244;2023-04-28T05:53:40;100710.89;;;4.63;100.00
19789;BME280;10054;59.332;18.244;2023-04-28T05:56:09;100714.24;;;4.67;100.00
19789;BME280;10054;59.332;18.244;2023-04-28T05:58:37;100711.97;;;4.69;100.00
19789;BME280;10054;59.332;18.244;2023-04-28T06:01:06;100707.14;;;4.70;100.00
19789;BME280;10054;59.332;18.244;2023-04-28T06:03:35;100710.61;;;4.71;100.00
19789;BME280;10054;59.332;18.244;2023-04-28T06:06:04;100715.16;;;4.77;100.00
19789;BME280;10054;59.332;18.244;2023-04-28T06:08:33;100719.70;;;4.72;100.00
19789;BME280;10054;59.332;18.244;2023-04-28T06:11:04;100721.29;;;4.76;100.00
19789;BME280;10054;59.332;18.244;2023-04-28T06:13:33;100724.02;;;4.85;100.00
19789;BME280;10054;59.332;18.244;2023-04-28T06:16:03;100730.09;;;4.85;100.00
19789;BME280;10054;59.332;18.244;2023-04-28T06:18:33;100733.34;;;4.92;100.00
19789;BME280;10054;59.332;18.244;2023-04-28T06:21:03;100732.42;;;5.05;100.00
19789;BME280;10054;59.332;18.244;2023-04-28T06:23:32;100736.28;;;5.18;100.00
19789;BME280;10054;59.332;18.244;2023-04-28T06:26:01;100741.30;;;5.22;100.00
19789;BME280;10054;59.332;18.244;2023-04-28T06:28:29;100744.13;;;5.28;100.00
19789;BME280;10054;59.332;18.244;2023-04-28T06:30:58;100743.67;;;5.28;100.00
19789;BME280;10054;59.332;18.244;2023-04-28T06:33:28;100744.08;;;5.29;100.00
19789;BME280;10054;59.332;18.244;2023-04-28T06:35:57;100751.80;;;5.33;100.00
19789;BME280;10054;59.332;18.244;2023-04-28T06:38:25;100751.56;;;5.39;100.00
19789;BME280;10054;59.332;18.244;2023-04-28T06:40:54;100759.30;;;5.42;100.00
19789;BME280;10054;59.332;18.244;2023-04-28T06:43:23;100757.13;;;5.41;100.00
19789;BME280;10054;59.332;18.244;2023-04-28T06:45:54;100760.36;;;5.48;100.00
19789;BME280;10054;59.332;18.244;2023-04-28T06:48:25;100756.56;;;5.45;100.00
19789;BME280;10054;59.332;18.244;2023-04-28T06:50:54;100762.47;;;5.50;100.00
19789;BME280;10054;59.332;18.244;2023-04-28T06:53:23;100757.27;;;5.60;100.00
19789;BME280;10054;59.332;18.244;2023-04-28T06:55:52;100762.07;;;5.71;100.00
19789;BME280;10054;59.332;18.244;2023-04-28T06:58:21;100763.92;;;5.79;100.00
19789;BME280;10054;59.332;18.244;2023-04-28T07:00:49;100767.14;;;5.85;100.00
19789;BME280;10054;59.332;18.244;2023-04-28T07:03:18;100770.52;;;5.89;100.00
19789;BME280;10054;59.332;18.244;2023-04-28T07:05:47;100772.38;;;5.85;100.00
19789;BME280;10054;59.332;18.244;2023-04-28T07:08:16;100773.53;;;5.90;100.00
19789;BME280;10054;59.332;18.244;2023-04-28T07:10:44;100768.02;;;5.96;100.00
19789;BME280;10054;59.332;18.244;2023-04-28T07:13:13;100773.98;;;6.00;100.00
19789;BME280;10054;59.332;18.244;2023-04-28T07:15:42;100774.12;;;6.07;100.00
19789;BME280;10054;59.332;18.244;2023-04-28T07:18:11;100771.39;;;6.20;100.00
19789;BME280;10054;59.332;18.244;2023-04-28T07:20:40;100775.78;;;6.30;100.00
19789;BME280;10054;59.332;18.244;2023-04-28T07:23:08;100780.05;;;6.32;100.00
19789;BME280;10054;59.332;18.244;2023-04-28T07:25:37;100776.83;;;6.36;100.00
19789;BME280;10054;59.332;18.244;2023-04-28T07:28:07;100779.13;;;6.33;100.00
19789;BME280;10054;59.332;18.244;2023-04-28T07:30:36;100785.48;;;6.38;100.00
19789;BME280;10054;59.332;18.244;2023-04-28T07:33:05;100780.31;;;6.46;100.00
19789;BME280;10054;59.332;18.244;2023-04-28T07:35:35;100787.91;;;6.52;100.00
19789;BME280;10054;59.332;18.244;2023-04-28T07:38:04;100788.69;;;6.65;100.00
19789;BME280;10054;59.332;18.244;2023-04-28T07:40:33;100797.62;;;6.79;100.00
19789;BME280;10054;59.332;18.244;2023-04-28T07:43:01;100796.64;;;6.82;100.00
19789;BME280;10054;59.332;18.244;2023-04-28T07:45:30;100798.73;;;6.74;100.00
19789;BME280;10054;59.332;18.244;2023-04-28T07:47:59;100797.27;;;6.68;100.00
19789;BME280;10054;59.332;18.244;2023-04-28T07:50:28;100805.95;;;6.69;100.00
19789;BME280;10054;59.332;18.244;2023-04-28T07:52:57;100799.20;;;6.73;100.00
19789;BME280;10054;59.332;18.244;2023-04-28T07:55:26;100808.16;;;6.88;100.00
19789;BME280;10054;59.332;18.244;2023-04-28T07:57:55;100810.75;;;7.08;100.00
19789;BME280;10054;59.332;18.244;2023-04-28T08:00:25;100812.16;;;7.25;100.00
19789;BME280;10054;59.332;18.244;2023-04-28T08:02:54;100819.86;;;7.39;100.00
19789;BME280;10054;59.332;18.244;2023-04-28T08:05:24;100820.99;;;7.61;100.00
19789;BME280;10054;59.332;18.244;2023-04-28T08:07:53;100819.42;;;7.75;100.00
19789;BME280;10054;59.332;18.244;2023-04-28T08:10:22;100828.56;;;7.85;98.51
19789;BME280;10054;59.332;18.244;2023-04-28T08:12:52;100831.45;;;7.98;99.13
19789;BME280;10054;59.332;18.244;2023-04-28T08:15:21;100824.13;;;8.05;97.95
19789;BME280;10054;59.332;18.244;2023-04-28T08:17:51;100828.60;;;8.03;95.77
19789;BME280;10054;59.332;18.244;2023-04-28T08:20:20;100829.94;;;8.11;96.59
19789;BME280;10054;59.332;18.244;2023-04-28T08:22:49;100829.77;;;8.32;97.75
19789;BME280;10054;59.332;18.244;2023-04-28T08:25:18;100835.24;;;8.18;92.83
19789;BME280;10054;59.332;18.244;2023-04-28T08:27:47;100838.86;;;8.43;94.83
19789;BME280;10054;59.332;18.244;2023-04-28T08:30:15;100839.09;;;8.47;90.25
19789;BME280;10054;59.332;18.244;2023-04-28T08:32:44;100841.88;;;8.53;92.74
19789;BME280;10054;59.332;18.244;2023-04-28T08:35:13;100838.86;;;8.61;93.28
19789;BME280;10054;59.332;18.244;2023-04-28T08:37:42;100840.41;;;8.65;91.86
19789;BME280;10054;59.332;18.244;2023-04-28T08:40:12;100851.62;;;8.51;87.73
19789;BME280;10054;59.332;18.244;2023-04-28T08:42:40;100845.73;;;8.37;90.42
19789;BME280;10054;59.332;18.244;2023-04-28T08:45:13;100854.48;;;8.46;89.41
19789;BME280;10054;59.332;18.244;2023-04-28T08:47:42;100853.94;;;8.48;90.88
19789;BME280;10054;59.332;18.244;2023-04-28T08:50:19;100864.84;;;8.49;90.07
19789;BME280;10054;59.332;18.244;2023-04-28T08:52:48;100861.58;;;8.36;88.90
19789;BME280;10054;59.332;18.244;2023-04-28T08:55:18;100861.66;;;8.34;89.24
19789;BME280;10054;59.332;18.244;2023-04-28T08:57:50;100867.37;;;8.34;89.67
19789;BME280;10054;59.332;18.244;2023-04-28T09:00:19;100866.15;;;8.41;90.11
19789;BME280;10054;59.332;18.244;2023-04-28T09:02:49;100864.22;;;8.44;88.85
19789;BME280;10054;59.332;18.244;2023-04-28T09:05:18;100874.05;;;8.49;89.02
19789;BME280;10054;59.332;18.244;2023-04-28T09:07:47;100872.34;;;8.57;89.03
19789;BME280;10054;59.332;18.244;2023-04-28T09:10:22;100871.65;;;8.53;86.67
19789;BME280;10054;59.332;18.244;2023-04-28T09:12:53;100878.61;;;8.63;88.34
19789;BME280;10054;59.332;18.244;2023-04-28T09:15:36;100876.98;;;8.78;87.55
19789;BME280;10054;59.332;18.244;2023-04-28T09:18:07;100877.30;;;8.89;86.50
19789;BME280;10054;59.332;18.244;2023-04-28T09:20:36;100874.12;;;8.91;86.20
19789;BME280;10054;59.332;18.244;2023-04-28T09:23:16;100872.53;;;8.96;85.39
19789;BME280;10054;59.332;18.244;2023-04-28T09:25:59;100876.24;;;9.00;84.35
19789;BME280;10054;59.332;18.244;2023-04-28T09:28:28;100872.69;;;9.01;84.40
19789;BME280;10054;59.332;18.244;2023-04-28T09:30:57;100879.34;;;9.00;84.55
19789;BME280;10054;59.332;18.244;2023-04-28T09:33:26;100881.55;;;8.83;79.22
19789;BME280;10054;59.332;18.244;2023-04-28T09:35:55;100879.47;;;8.72;81.45
19789;BME280;10054;59.332;18.244;2023-04-28T09:38:24;100872.89;;;8.81;82.72
19789;BME280;10054;59.332;18.244;2023-04-28T09:41:03;100870.25;;;8.89;82.21
19789;BME280;10054;59.332;18.244;2023-04-28T09:43:29;100866.23;;;8.91;81.77
19789;BME280;10054;59.332;18.244;2023-04-28T09:46:00;100868.95;;;9.14;82.32
19789;BME280;10054;59.332;18.244;2023-04-28T09:48:33;100862.77;;;9.39;81.81
19789;BME280;10054;59.332;18.244;2023-04-28T09:51:04;100863.26;;;9.54;79.37
19789;BME280;10054;59.332;18.244;2023-04-28T09:53:34;100859.89;;;9.75;80.09
19789;BME280;10054;59.332;18.244;2023-04-28T09:56:04;100863.67;;;9.94;79.12
19789;BME280;10054;59.332;18.244;2023-04-28T09:58:34;100864.17;;;10.01;76.28
19789;BME280;10054;59.332;18.244;2023-04-28T10:01:06;100855.30;;;9.95;76.45
19789;BME280;10054;59.332;18.244;2023-04-28T10:03:39;100860.56;;;9.79;74.83
19789;BME280;10054;59.332;18.244;2023-04-28T10:06:09;100867.48;;;9.73;76.70
19789;BME280;10054;59.332;18.244;2023-04-28T10:08:38;100869.66;;;9.73;77.42
19789;BME280;10054;59.332;18.244;2023-04-28T10:11:08;100862.52;;;9.75;76.51
19789;BME280;10054;59.332;18.244;2023-04-28T10:13:37;100867.23;;;9.77;75.60
19789;BME280;10054;59.332;18.244;2023-04-28T10:16:06;100865.33;;;9.72;76.00
19789;BME280;10054;59.332;18.244;2023-04-28T10:18:36;100862.86;;;9.69;75.94
19789;BME280;10054;59.332;18.244;2023-04-28T10:21:05;100866.52;;;9.67;75.43
19789;BME280;10054;59.332;18.244;2023-04-28T10:24:03;100866.09;;;9.74;73.89
19789;BME280;10054;59.332;18.244;2023-04-28T10:26:35;100867.80;;;9.91;75.45
19789;BME280;10054;59.332;18.244;2023-04-28T10:29:02;100866.34;;;10.01;73.52
19789;BME280;10054;59.332;18.244;2023-04-28T10:31:31;100873.99;;;10.06;71.09
19789;BME280;10054;59.332;18.244;2023-04-28T10:34:20;100871.83;;;10.05;72.08
19789;BME280;10054;59.332;18.244;2023-04-28T10:36:49;100865.06;;;10.08;71.21
19789;BME280;10054;59.332;18.244;2023-04-28T10:39:20;100867.61;;;10.10;69.01
19789;BME280;10054;59.332;18.244;2023-04-28T10:41:49;100876.20;;;9.98;68.86
19789;BME280;10054;59.332;18.244;2023-04-28T10:47:05;100866.90;;;9.99;67.49
19789;BME280;10054;59.332;18.244;2023-04-28T10:55:29;100869.73;;;9.65;67.43
19789;BME280;10054;59.332;18.244;2023-04-28T11:00:47;100863.01;;;9.59;69.35
19789;BME280;10054;59.332;18.244;2023-04-28T11:06:27;100864.52;;;9.95;69.50
19789;BME280;10054;59.332;18.244;2023-04-28T11:08:58;100874.01;;;10.22;68.46
19789;BME280;10054;59.332;18.244;2023-04-28T11:11:34;100871.34;;;10.44;67.92
19789;BME280;10054;59.332;18.244;2023-04-28T11:16:52;100872.08;;;10.69;64.61
19789;BME280;10054;59.332;18.244;2023-04-28T11:19:27;100877.86;;;10.83;63.49
19789;BME280;10054;59.332;18.244;2023-04-28T11:21:54;100882.80;;;10.96;63.93
19789;BME280;10054;59.332;18.244;2023-04-28T11:24:24;100879.04;;;11.07;63.35
19789;BME280;10054;59.332;18.244;2023-04-28T11:26:57;100876.97;;;11.12;61.67
19789;BME280;10054;59.332;18.244;2023-04-28T11:32:06;100872.98;;;11.34;62.10
19789;BME280;10054;59.332;18.244;2023-04-28T11:34:36;100877.89;;;11.26;61.54
19789;BME280;10054;59.332;18.244;2023-04-28T11:37:06;100871.78;;;11.11;57.94
19789;BME280;10054;59.332;18.244;2023-04-28T11:39:36;100861.30;;;10.95;59.82
19789;BME280;10054;59.332;18.244;2023-04-28T11:42:11;100869.97;;;11.18;61.96
19789;BME280;10054;59.332;18.244;2023-04-28T11:44:39;100869.97;;;11.18;61.96
19789;BME280;10054;59.332;18.244;2023-04-28T11:47:08;100865.16;;;11.32;60.75
19789;BME280;10054;59.332;18.244;2023-04-28T11:49:46;100866.48;;;11.39;59.10
19789;BME280;10054;59.332;18.244;2023-04-28T11:52:15;100849.12;;;11.35;58.11
19789;BME280;10054;59.332;18.244;2023-04-28T11:54:44;100868.08;;;11.42;58.27
19789;BME280;10054;59.332;18.244;2023-04-28T11:57:19;100853.84;;;11.30;57.29
19789;BME280;10054;59.332;18.244;2023-04-28T11:59:49;100853.84;;;11.30;57.29
19789;BME280;10054;59.332;18.244;2023-04-28T12:02:26;100861.20;;;11.39;57.77
19789;BME280;10054;59.332;18.244;2023-04-28T12:05:04;100864.88;;;11.37;57.17
19789;BME280;10054;59.332;18.244;2023-04-28T12:07:38;100861.76;;;11.44;56.21
19789;BME280;10054;59.332;18.244;2023-04-28T12:10:12;100860.90;;;11.58;56.60
19789;BME280;10054;59.332;18.244;2023-04-28T12:12:42;100861.53;;;11.76;55.36
19789;BME280;10054;59.332;18.244;2023-04-28T12:15:11;100863.48;;;11.94;56.10
19789;BME280;10054;59.332;18.244;2023-04-28T12:17:41;100874.13;;;11.99;56.47
19789;BME280;10054;59.332;18.244;2023-04-28T12:20:31;100873.68;;;11.93;56.47
19789;BME280;10054;59.332;18.244;2023-04-28T12:22:51;100869.66;;;11.87;54.33
19789;BME280;10054;59.332;18.244;2023-04-28T12:25:17;100864.27;;;11.74;56.11
19789;BME280;10054;59.332;18.244;2023-04-28T12:28:06;100862.12;;;11.67;55.99
19789;BME280;10054;59.332;18.244;2023-04-28T12:30:36;100861.93;;;11.63;56.52
19789;BME280;10054;59.332;18.244;2023-04-28T12:33:20;100869.02;;;11.55;56.68
19789;BME280;10054;59.332;18.244;2023-04-28T12:35:36;100871.95;;;11.50;56.43
19789;BME280;10054;59.332;18.244;2023-04-28T12:38:04;100865.53;;;11.47;56.72
19789;BME280;10054;59.332;18.244;2023-04-28T12:40:33;100873.08;;;11.53;56.03
19789;BME280;10054;59.332;18.244;2023-04-28T12:43:02;100873.08;;;11.53;56.03
19789;BME280;10054;59.332;18.244;2023-04-28T12:45:30;100872.59;;;11.68;56.21
19789;BME280;10054;59.332;18.244;2023-04-28T12:47:59;100873.73;;;11.78;54.94
19789;BME280;10054;59.332;18.244;2023-04-28T12:50:28;100878.02;;;11.94;54.96
19789;BME280;10054;59.332;18.244;2023-04-28T12:52:58;100872.59;;;12.09;55.21
19789;BME280;10054;59.332;18.244;2023-04-28T12:55:28;100873.42;;;12.17;54.22
19789;BME280;10054;59.332;18.244;2023-04-28T12:57:57;100871.90;;;12.20;53.49
19789;BME280;10054;59.332;18.244;2023-04-28T13:00:25;100866.86;;;12.30;53.66
19789;BME280;10054;59.332;18.244;2023-04-28T13:02:54;100866.08;;;12.35;53.60
19789;BME280;10054;59.332;18.244;2023-04-28T13:05:22;100860.66;;;12.43;54.08
19789;BME280;10054;59.332;18.244;2023-04-28T13:07:52;100865.17;;;12.48;53.43
19789;BME280;10054;59.332;18.244;2023-04-28T13:10:21;100857.40;;;12.53;51.02
19789;BME280;10054;59.332;18.244;2023-04-28T13:12:50;100859.12;;;12.46;52.08
19789;BME280;10054;59.332;18.244;2023-04-28T13:15:18;100863.78;;;12.43;52.63
19789;BME280;10054;59.332;18.244;2023-04-28T13:17:48;100863.16;;;12.32;52.01